KEGE/EGE METAR and TAF weather

Enter ICAO airport designator
Station Type Date Time Source
KEGE METAR 2019/04/24 21:56 UTC NOAA

KEGE 242156Z 29006KT 10SM OVC095 19/M02 A3005 RMK AO2 SLP152 T01891022


Station Type Date Time Source
KEGE Decoded METAR 2019/04/24 21:56 UTC NOAA

Eagle County Regional, CO, United States (KEGE) 39-39N 106-55W
Apr 24, 2019 - 05:56 PM EDT / 2019.04.24 2156 UTC
Wind: from the WNW (290 degrees) at 7 MPH (6 KT):0
Visibility: 10 mile(s):0
Sky conditions: overcast
Temperature: 66.0 F (18.9 C)
Dew Point: 28.0 F (-2.2 C)
Relative Humidity: 23%
Pressure (altimeter): 30.05 in. Hg (1017 hPa)
ob: KEGE 242156Z 29006KT 10SM OVC095 19/M02 A3005 RMK AO2 SLP152 T01891022
cycle: 22

Station Type Date Time Source
KEGE TAF 2019/04/24 18:27 UTC NOAA

TAF KEGE 241725Z 2418/2518 VRB04KT P6SM FEW120
FM242000 27007KT P6SM SCT120
FM250300 VRB04KT P6SM SCT100
FM251600 00000KT P6SM FEW200

Example: see airport list